createdAt,value
2023-03-04T00:00:45.795Z,101708.31
2023-03-04T00:03:15.658Z,101708.59
2023-03-04T00:05:45.183Z,101709.50
2023-03-04T00:08:14.555Z,101717.03
2023-03-04T00:10:43.993Z,101713.19
2023-03-04T00:13:16.949Z,101713.94
2023-03-04T00:15:46.389Z,101714.06
2023-03-04T00:18:16.284Z,101711.78
2023-03-04T00:20:46.185Z,101716.91
2023-03-04T00:23:15.732Z,101715.34
2023-03-04T00:25:45.332Z,101719.56
2023-03-04T00:28:17.304Z,101706.78
2023-03-04T00:30:46.691Z,101714.44
2023-03-04T00:33:16.207Z,101724.66
2023-03-04T00:35:45.682Z,101727.38
2023-03-04T00:38:15.157Z,101719.69
2023-03-04T00:40:44.777Z,101716.66
2023-03-04T00:43:17.020Z,101710.50
2023-03-04T00:45:46.441Z,101712.16
2023-03-04T00:48:16.477Z,101706.28
2023-03-04T00:50:46.131Z,101702.09
2023-03-04T00:53:15.580Z,101703.09
2023-03-04T00:55:44.996Z,101697.09
2023-03-04T00:58:17.676Z,101704.88
2023-03-04T01:00:47.183Z,101708.44
2023-03-04T01:03:16.952Z,101704.13
2023-03-04T01:05:46.332Z,101698.91
2023-03-04T01:08:15.726Z,101694.94
2023-03-04T01:10:45.510Z,101693.53
2023-03-04T01:13:17.514Z,101685.97
2023-03-04T01:15:47.034Z,101681.63
2023-03-04T01:18:16.523Z,101684.19
2023-03-04T01:20:45.963Z,101684.97
2023-03-04T01:23:15.452Z,101678.97
2023-03-04T01:25:47.601Z,101680.63
2023-03-04T01:28:19.580Z,101668.00
2023-03-04T01:30:49.039Z,101661.97
2023-03-04T01:33:18.530Z,101663.75
2023-03-04T01:35:48.037Z,101656.72
2023-03-04T01:38:17.732Z,101649.19
2023-03-04T01:40:48.503Z,101642.16
2023-03-04T01:43:24.026Z,101646.41
2023-03-04T01:45:54.750Z,101640.38
2023-03-04T01:48:28.310Z,101629.03
2023-03-04T01:50:59.303Z,101617.34
2023-03-04T01:53:30.402Z,101609.47
2023-03-04T01:56:01.408Z,101610.44
2023-03-04T01:58:35.397Z,101604.22
2023-03-04T02:01:04.836Z,101625.06
2023-03-04T02:03:34.363Z,101616.19
2023-03-04T02:06:03.852Z,101621.97
2023-03-04T02:08:33.730Z,101623.25
2023-03-04T02:11:03.170Z,101620.03
2023-03-04T02:13:35.808Z,101612.88
2023-03-04T02:16:05.264Z,101606.00
2023-03-04T02:18:34.694Z,101597.06
2023-03-04T02:21:09.941Z,101597.06
2023-03-04T02:23:45.166Z,101577.41
2023-03-04T02:26:19.713Z,101583.16
2023-03-04T02:28:51.699Z,101577.28
2023-03-04T02:31:27.473Z,101567.19
2023-03-04T02:33:59.005Z,101570.63
2023-03-04T02:36:28.586Z,101563.59
2023-03-04T02:38:59.264Z,101560.78
2023-03-04T02:41:32.338Z,101551.31
2023-03-04T02:44:01.778Z,101554.38
2023-03-04T02:46:31.242Z,101536.00
2023-03-04T02:49:00.737Z,101537.28
2023-03-04T02:51:30.142Z,101533.19
2023-03-04T02:53:59.644Z,101521.19
2023-03-04T02:56:31.654Z,101535.75
2023-03-04T02:59:02.393Z,101512.75
2023-03-04T03:01:32.156Z,101515.44
2023-03-04T03:04:01.564Z,101517.88
2023-03-04T03:06:34.012Z,101509.47
2023-03-04T03:09:03.392Z,101510.31
2023-03-04T03:11:35.614Z,101490.31
2023-03-04T03:14:05.897Z,101497.84
2023-03-04T03:16:35.427Z,101496.41
2023-03-04T03:19:04.962Z,101484.78
2023-03-04T03:21:34.782Z,101483.91
2023-03-04T03:24:04.214Z,101493.47
2023-03-04T03:26:36.439Z,101485.69
2023-03-04T03:29:05.859Z,101492.81
2023-03-04T03:31:35.339Z,101493.28
2023-03-04T03:34:04.817Z,101488.72
2023-03-04T03:36:34.281Z,101479.28
2023-03-04T03:39:03.787Z,101487.94
2023-03-04T03:41:35.804Z,101483.84
2023-03-04T03:44:05.258Z,101479.28
2023-03-04T03:46:35.310Z,101478.81
2023-03-04T03:49:04.741Z,101477.91
2023-03-04T03:51:34.180Z,101477.00
2023-03-04T03:54:03.574Z,101473.31
2023-03-04T03:56:32.998Z,101458.88
2023-03-04T03:59:05.061Z,101454.19
2023-03-04T04:01:34.688Z,101452.50
2023-03-04T04:04:04.188Z,101443.06
2023-03-04T04:06:33.602Z,101441.22
2023-03-04T04:09:02.997Z,101447.88
2023-03-04T04:11:32.387Z,101444.69
2023-03-04T04:14:01.816Z,101436.09
2023-03-04T04:16:34.208Z,101436.66
2023-03-04T04:19:03.651Z,101433.56
2023-03-04T04:21:33.053Z,101437.44
2023-03-04T04:24:02.702Z,101455.25
2023-03-04T04:26:32.075Z,101454.00
2023-03-04T04:29:01.819Z,101449.44
2023-03-04T04:31:33.845Z,101455.19
2023-03-04T04:34:03.660Z,101454.53
2023-03-04T04:36:33.244Z,101472.66
2023-03-04T04:39:02.916Z,101480.44
2023-03-04T04:41:34.639Z,101499.25
2023-03-04T04:44:04.019Z,101507.91
2023-03-04T04:46:36.169Z,101533.69
2023-03-04T04:49:06.400Z,101535.50
2023-03-04T04:51:36.379Z,101536.22
2023-03-04T04:54:06.570Z,101568.72
2023-03-04T04:56:36.067Z,101571.25
2023-03-04T04:59:08.603Z,101572.78
2023-03-04T05:01:41.423Z,101575.59
2023-03-04T05:04:10.882Z,101585.19
2023-03-04T05:06:40.321Z,101586.09
2023-03-04T05:09:09.937Z,101576.59
2023-03-04T05:11:39.323Z,101582.34
2023-03-04T05:14:08.942Z,101573.31
2023-03-04T05:16:41.117Z,101574.59
2023-03-04T05:19:10.838Z,101571.41
2023-03-04T05:21:40.257Z,101583.28
2023-03-04T05:24:10.205Z,101578.53
2023-03-04T05:26:39.981Z,101578.16
2023-03-04T05:29:09.402Z,101579.72
2023-03-04T05:31:41.701Z,101573.34
2023-03-04T05:34:15.439Z,101579.22
2023-03-04T05:36:45.067Z,101575.63
2023-03-04T05:39:14.619Z,101574.25
2023-03-04T05:41:44.258Z,101585.09
2023-03-04T05:44:13.668Z,101586.63
2023-03-04T05:46:45.888Z,101581.66
2023-03-04T05:49:15.674Z,101577.94
2023-03-04T05:51:45.035Z,101571.78
2023-03-04T05:54:14.455Z,101578.69
2023-03-04T05:56:44.219Z,101583.56
2023-03-04T05:59:14.076Z,101583.56
2023-03-04T06:01:46.115Z,101583.06
2023-03-04T06:04:15.791Z,101596.19
2023-03-04T06:06:46.640Z,101580.94
2023-03-04T06:09:16.712Z,101580.81
2023-03-04T06:11:46.095Z,101594.06
2023-03-04T06:14:15.636Z,101608.69
2023-03-04T06:16:47.654Z,101612.28
2023-03-04T06:19:17.137Z,101618.81
2023-03-04T06:21:46.625Z,101637.19
2023-03-04T06:24:16.319Z,101629.66
2023-03-04T06:26:45.749Z,101632.38
2023-03-04T06:29:15.372Z,101634.16
2023-03-04T06:31:47.826Z,101644.13
2023-03-04T06:34:17.385Z,101647.56
2023-03-04T06:36:46.900Z,101660.19
2023-03-04T06:39:16.861Z,101650.75
2023-03-04T06:41:46.298Z,101655.97
2023-03-04T06:44:15.714Z,101654.94
2023-03-04T06:46:47.792Z,101654.56
2023-03-04T06:49:17.334Z,101662.22
2023-03-04T06:51:46.970Z,101653.41
2023-03-04T06:54:16.662Z,101659.41
2023-03-04T06:56:46.084Z,101659.41
2023-03-04T06:59:15.576Z,101661.47
2023-03-04T07:01:47.639Z,101659.41
2023-03-04T07:04:17.674Z,101663.25
2023-03-04T07:06:47.178Z,101653.53
2023-03-04T07:09:17.160Z,101656.84
2023-03-04T07:11:46.799Z,101656.84
2023-03-04T07:14:16.584Z,101666.03
2023-03-04T07:16:48.608Z,101659.16
2023-03-04T07:19:18.084Z,101662.72
2023-03-04T07:21:47.469Z,101675.22
2023-03-04T07:24:16.935Z,101666.53
2023-03-04T07:26:46.544Z,101670.47
2023-03-04T07:29:16.229Z,101672.25
2023-03-04T07:31:48.351Z,101679.81
2023-03-04T07:34:18.263Z,101673.03
2023-03-04T07:36:47.926Z,101680.06
2023-03-04T07:39:17.323Z,101684.53
2023-03-04T07:41:46.844Z,101669.09
2023-03-04T07:44:19.059Z,101698.78
2023-03-04T07:46:51.014Z,101706.59
2023-03-04T07:49:20.462Z,101695.47
2023-03-04T07:51:49.838Z,101715.88
2023-03-04T07:54:20.196Z,101719.59
2023-03-04T07:56:49.626Z,101717.31
2023-03-04T07:59:19.006Z,101720.34
2023-03-04T08:01:53.084Z,101722.75
2023-03-04T08:04:22.538Z,101740.53
2023-03-04T08:06:52.004Z,101738.97
2023-03-04T08:09:21.681Z,101748.16
2023-03-04T08:11:51.420Z,101760.16
2023-03-04T08:14:21.110Z,101747.66
2023-03-04T08:16:53.108Z,101754.81
2023-03-04T08:19:24.404Z,101754.81
2023-03-04T08:21:55.124Z,101747.78
2023-03-04T08:24:24.547Z,101760.41
2023-03-04T08:26:54.018Z,101753.91
2023-03-04T08:29:25.180Z,101752.50
2023-03-04T08:31:58.395Z,101777.03
2023-03-04T08:34:30.316Z,101773.44
2023-03-04T08:36:59.832Z,101773.69
2023-03-04T08:39:29.217Z,101775.47
2023-03-04T08:41:58.940Z,101777.66
2023-03-04T08:44:28.414Z,101769.13
2023-03-04T08:47:00.461Z,101773.44
2023-03-04T08:49:29.920Z,101780.34
2023-03-04T08:51:59.673Z,101773.44
2023-03-04T08:54:29.119Z,101773.16
2023-03-04T08:56:58.839Z,101777.13
2023-03-04T08:59:28.382Z,101783.59
2023-03-04T09:02:00.981Z,101792.50
2023-03-04T09:04:32.846Z,101794.03
2023-03-04T09:07:02.299Z,101791.88
2023-03-04T09:09:31.877Z,101800.94
2023-03-04T09:12:01.437Z,101800.44
2023-03-04T09:14:30.923Z,101797.91
2023-03-04T09:17:02.949Z,101791.78
2023-03-04T09:19:32.640Z,101791.53
2023-03-04T09:22:02.131Z,101793.03
2023-03-04T09:24:31.570Z,101791.03
2023-03-04T09:27:00.998Z,101795.66
2023-03-04T09:29:30.419Z,101802.81
2023-03-04T09:31:59.956Z,101786.75
2023-03-04T09:34:32.032Z,101808.94
2023-03-04T09:37:01.481Z,101804.38
2023-03-04T09:39:30.957Z,101807.41
2023-03-04T09:42:01.806Z,101827.06
2023-03-04T09:44:33.921Z,101822.25
2023-03-04T09:47:05.672Z,101825.19
2023-03-04T09:49:41.596Z,101817.03
2023-03-04T09:52:20.633Z,101828.13
2023-03-04T09:55:04.911Z,101813.59
2023-03-04T09:57:46.975Z,101812.56
2023-03-04T10:00:20.261Z,101824.03
2023-03-04T10:03:21.092Z,101826.88
2023-03-04T10:05:58.488Z,101830.16
2023-03-04T10:08:35.792Z,101833.25
2023-03-04T10:11:07.661Z,101829.66
2023-03-04T10:13:40.715Z,101826.63
2023-03-04T10:16:15.399Z,101825.91
2023-03-04T10:18:50.175Z,101813.88
2023-03-04T10:21:25.290Z,101814.16
2023-03-04T10:23:54.728Z,101826.78
2023-03-04T10:26:25.661Z,101817.25
2023-03-04T10:28:55.082Z,101827.69
2023-03-04T10:31:31.944Z,101808.06
2023-03-04T10:34:01.318Z,101810.34
2023-03-04T10:36:44.768Z,101815.00
2023-03-04T10:39:16.756Z,101820.09
2023-03-04T10:41:48.086Z,101835.94
2023-03-04T10:44:21.539Z,101825.47
2023-03-04T10:46:51.920Z,101830.44
2023-03-04T10:49:22.553Z,101834.78
2023-03-04T10:51:57.655Z,101842.31
2023-03-04T10:54:32.136Z,101834.94
2023-03-04T10:57:03.620Z,101834.94
2023-03-04T10:59:42.198Z,101842.06
2023-03-04T11:02:19.588Z,101840.81
2023-03-04T11:04:53.672Z,101828.91
2023-03-04T11:07:27.270Z,101841.19
2023-03-04T11:09:58.444Z,101844.13
2023-03-04T11:12:36.154Z,101859.22
2023-03-04T11:15:06.283Z,101845.78
2023-03-04T11:17:45.859Z,101855.13
2023-03-04T11:20:19.340Z,101854.63
2023-03-04T11:22:51.915Z,101828.69
2023-03-04T11:25:27.071Z,101853.75
2023-03-04T11:27:57.557Z,101850.81
2023-03-04T11:30:37.015Z,101847.09
2023-03-04T11:33:15.406Z,101839.78
2023-03-04T11:35:54.976Z,101845.44
2023-03-04T11:38:31.594Z,101838.38
2023-03-04T11:41:02.490Z,101846.97
2023-03-04T11:43:35.312Z,101837.25
2023-03-04T11:46:21.780Z,101837.00
2023-03-04T11:48:55.942Z,101835.94
2023-03-04T11:51:29.459Z,101829.78
2023-03-04T11:54:20.243Z,101839.66
2023-03-04T11:56:52.359Z,101831.34
2023-03-04T11:59:42.252Z,101816.00
2023-03-04T12:02:16.603Z,101828.78
2023-03-04T12:05:07.939Z,101810.44
2023-03-04T12:07:55.402Z,101812.44
2023-03-04T12:10:31.488Z,101819.81
2023-03-04T12:13:20.459Z,101817.91
2023-03-04T12:15:54.314Z,101805.59
2023-03-04T12:18:41.123Z,101806.75
2023-03-04T12:21:20.488Z,101804.94
2023-03-04T12:24:09.444Z,101800.34
2023-03-04T12:26:43.415Z,101811.28
2023-03-04T12:29:18.195Z,101797.22
2023-03-04T12:31:49.141Z,101794.09
2023-03-04T12:34:36.831Z,101792.41
2023-03-04T12:37:25.759Z,101794.66
2023-03-04T12:40:19.518Z,101791.03
2023-03-04T12:43:02.490Z,101791.38
2023-03-04T12:45:35.631Z,101778.75
2023-03-04T12:48:12.307Z,101781.97
2023-03-04T12:50:45.585Z,101762.00
2023-03-04T12:53:21.186Z,101767.41
2023-03-04T12:55:51.256Z,101769.13
2023-03-04T12:58:25.409Z,101769.78
2023-03-04T13:01:00.492Z,101774.69
2023-03-04T13:03:38.560Z,101770.22
2023-03-04T13:06:17.833Z,101766.03
2023-03-04T13:08:58.313Z,101766.75
2023-03-04T13:11:47.545Z,101761.13
2023-03-04T13:14:36.780Z,101761.22
2023-03-04T13:17:44.114Z,101754.31
2023-03-04T13:20:24.316Z,101748.66
2023-03-04T13:22:58.349Z,101740.88
2023-03-04T13:25:50.251Z,101748.78
2023-03-04T13:28:24.470Z,101735.31
2023-03-04T13:31:35.207Z,101749.19
2023-03-04T13:34:47.420Z,101762.06
2023-03-04T13:37:30.787Z,101752.75
2023-03-04T13:40:42.052Z,101752.34
2023-03-04T13:43:31.426Z,101744.06
2023-03-04T13:46:01.103Z,101751.47
2023-03-04T13:48:36.532Z,101736.97
2023-03-04T13:51:28.680Z,101752.78
2023-03-04T13:53:59.376Z,101744.50
2023-03-04T13:56:36.938Z,101751.31
2023-03-04T13:59:18.549Z,101747.13
2023-03-04T14:02:15.969Z,101743.81
2023-03-04T14:04:46.593Z,101740.59
2023-03-04T14:07:28.767Z,101740.81
2023-03-04T14:10:00.903Z,101736.19
2023-03-04T14:12:32.023Z,101743.25
2023-03-04T14:15:03.276Z,101737.63
2023-03-04T14:17:35.204Z,101731.88
2023-03-04T14:20:05.443Z,101739.59
2023-03-04T14:22:42.347Z,101735.50
2023-03-04T14:25:25.161Z,101735.50
2023-03-04T14:28:05.394Z,101731.94
2023-03-04T14:30:42.747Z,101738.59
2023-03-04T14:33:19.202Z,101736.31
2023-03-04T14:35:49.654Z,101743.97
2023-03-04T14:38:25.796Z,101741.91
2023-03-04T14:40:57.375Z,101739.50
2023-03-04T14:43:26.864Z,101747.53
2023-03-04T14:45:58.524Z,101743.34
2023-03-04T14:48:33.547Z,101736.44
2023-03-04T14:51:04.774Z,101739.38
2023-03-04T14:53:36.780Z,101730.94
2023-03-04T14:56:08.237Z,101731.84
2023-03-04T14:58:38.586Z,101730.41
2023-03-04T15:01:11.410Z,101731.69
2023-03-04T15:03:40.961Z,101736.16
2023-03-04T15:06:19.644Z,101730.81
2023-03-04T15:08:58.312Z,101719.31
2023-03-04T15:11:29.443Z,101718.38
2023-03-04T15:14:00.180Z,101727.91
2023-03-04T15:16:30.840Z,101729.00
2023-03-04T15:19:03.519Z,101726.34
2023-03-04T15:21:38.493Z,101723.91
2023-03-04T15:24:13.771Z,101728.91
2023-03-04T15:26:46.047Z,101721.75
2023-03-04T15:29:17.444Z,101715.34
2023-03-04T15:31:48.358Z,101719.19
2023-03-04T15:34:20.195Z,101726.09
2023-03-04T15:36:51.819Z,101727.34
2023-03-04T15:39:25.335Z,101728.38
2023-03-04T15:41:55.888Z,101720.97
2023-03-04T15:44:25.367Z,101717.91
2023-03-04T15:46:54.753Z,101726.97
2023-03-04T15:49:24.274Z,101723.50
2023-03-04T15:51:53.722Z,101718.16
2023-03-04T15:54:26.807Z,101724.81
2023-03-04T15:56:58.365Z,101722.50
2023-03-04T15:59:27.953Z,101724.78
2023-03-04T16:01:57.665Z,101719.78
2023-03-04T16:04:27.268Z,101713.78
2023-03-04T16:06:59.447Z,101711.72
2023-03-04T16:09:31.449Z,101712.88
2023-03-04T16:12:02.090Z,101718.09
2023-03-04T16:14:31.737Z,101718.09
2023-03-04T16:17:01.654Z,101716.06
2023-03-04T16:19:31.059Z,101711.31
2023-03-04T16:22:00.817Z,101708.13
2023-03-04T16:24:36.236Z,101704.84
2023-03-04T16:27:06.322Z,101704.41
2023-03-04T16:29:35.748Z,101699.31
2023-03-04T16:32:05.234Z,101694.06
2023-03-04T16:34:34.721Z,101694.22
2023-03-04T16:37:07.855Z,101697.00
2023-03-04T16:39:44.158Z,101692.28
2023-03-04T16:42:19.053Z,101684.38
2023-03-04T16:44:50.727Z,101695.31
2023-03-04T16:47:20.158Z,101698.34
2023-03-04T16:49:50.860Z,101690.13
2023-03-04T16:52:27.007Z,101687.81
2023-03-04T16:55:00.518Z,101675.16
2023-03-04T16:57:31.616Z,101693.97
2023-03-04T17:00:01.596Z,101690.34
2023-03-04T17:02:32.344Z,101692.91
2023-03-04T17:05:01.821Z,101696.22
2023-03-04T17:07:31.225Z,101695.34
2023-03-04T17:10:03.556Z,101706.41
2023-03-04T17:12:32.949Z,101691.88
2023-03-04T17:15:04.223Z,101702.31
2023-03-04T17:17:33.756Z,101696.44
2023-03-04T17:20:04.667Z,101705.94
2023-03-04T17:22:34.345Z,101706.94
2023-03-04T17:25:06.893Z,101704.25
2023-03-04T17:27:36.399Z,101702.22
2023-03-04T17:30:06.892Z,101703.09
2023-03-04T17:32:36.662Z,101704.75
2023-03-04T17:35:06.418Z,101706.41
2023-03-04T17:37:35.865Z,101709.84
2023-03-04T17:40:14.125Z,101713.03
2023-03-04T17:42:44.534Z,101716.03
2023-03-04T17:45:14.779Z,101724.44
2023-03-04T17:47:44.221Z,101709.00
2023-03-04T17:50:15.266Z,101723.28
2023-03-04T17:52:44.799Z,101724.81
2023-03-04T17:55:16.808Z,101724.03
2023-03-04T17:57:46.195Z,101719.72
2023-03-04T18:00:17.083Z,101719.78
2023-03-04T18:02:46.502Z,101725.47
2023-03-04T18:05:16.282Z,101716.06
2023-03-04T18:07:45.719Z,101725.81
2023-03-04T18:10:17.860Z,101718.16
2023-03-04T18:12:47.413Z,101721.31
2023-03-04T18:15:17.287Z,101715.69
2023-03-04T18:17:47.603Z,101732.81
2023-03-04T18:20:17.486Z,101717.25
2023-03-04T18:22:47.341Z,101724.47
2023-03-04T18:25:21.440Z,101726.00
2023-03-04T18:27:51.462Z,101715.06
2023-03-04T18:30:27.239Z,101716.47
2023-03-04T18:32:57.138Z,101715.44
2023-03-04T18:35:26.619Z,101720.66
2023-03-04T18:37:56.105Z,101716.94
2023-03-04T18:40:28.600Z,101715.34
2023-03-04T18:42:59.992Z,101719.88
2023-03-04T18:45:29.797Z,101718.84
2023-03-04T18:47:59.739Z,101717.78
2023-03-04T18:50:29.444Z,101716.94
2023-03-04T18:52:58.842Z,101720.09
2023-03-04T18:55:31.914Z,101722.94
2023-03-04T18:58:02.264Z,101722.66
2023-03-04T19:00:31.886Z,101707.41
2023-03-04T19:03:04.404Z,101713.72
2023-03-04T19:05:36.142Z,101710.13
2023-03-04T19:08:06.874Z,101708.19
2023-03-04T19:10:39.160Z,101711.34
2023-03-04T19:13:08.631Z,101718.22
2023-03-04T19:15:38.015Z,101723.59
2023-03-04T19:18:08.009Z,101717.63
2023-03-04T19:20:37.536Z,101717.97
2023-03-04T19:23:10.052Z,101715.00
2023-03-04T19:25:42.377Z,101724.84
2023-03-04T19:28:12.930Z,101725.16
2023-03-04T19:30:43.769Z,101722.31
2023-03-04T19:33:13.206Z,101722.91
2023-03-04T19:35:44.264Z,101731.72
2023-03-04T19:38:13.846Z,101721.88
2023-03-04T19:40:46.931Z,101718.59
2023-03-04T19:43:16.852Z,101724.28
2023-03-04T19:45:46.345Z,101726.66
2023-03-04T19:48:15.898Z,101726.97
2023-03-04T19:50:45.276Z,101733.69
2023-03-04T19:53:18.390Z,101738.50
2023-03-04T19:55:53.675Z,101732.34
2023-03-04T19:58:23.510Z,101730.41
2023-03-04T20:00:54.963Z,101736.72
2023-03-04T20:03:25.424Z,101725.22
2023-03-04T20:06:04.737Z,101735.22
2023-03-04T20:08:34.640Z,101733.59
2023-03-04T20:11:09.621Z,101738.34
2023-03-04T20:13:39.035Z,101729.97
2023-03-04T20:16:10.732Z,101730.31
2023-03-04T20:18:40.772Z,101740.31
2023-03-04T20:21:10.836Z,101735.38
2023-03-04T20:23:41.615Z,101736.72
2023-03-04T20:26:14.063Z,101731.94
2023-03-04T20:28:43.475Z,101731.50
2023-03-04T20:31:15.735Z,101731.50
2023-03-04T20:33:45.276Z,101741.97
2023-03-04T20:36:14.690Z,101736.91
2023-03-04T20:38:44.069Z,101735.38
2023-03-04T20:41:16.209Z,101720.91
2023-03-04T20:43:45.729Z,101723.72
2023-03-04T20:46:32.453Z,101719.22
2023-03-04T20:49:06.809Z,101710.88
2023-03-04T20:51:36.943Z,101713.88
2023-03-04T20:54:07.281Z,101710.41
2023-03-04T20:56:40.054Z,101715.66
2023-03-04T20:59:11.346Z,101712.34
2023-03-04T21:01:42.015Z,101715.47
2023-03-04T21:04:11.669Z,101710.81
2023-03-04T21:06:41.856Z,101708.75
2023-03-04T21:09:13.857Z,101698.09
2023-03-04T21:11:46.116Z,101711.88
2023-03-04T21:14:19.392Z,101697.94
2023-03-04T21:16:49.948Z,101696.44
2023-03-04T21:19:21.566Z,101699.75
2023-03-04T21:21:54.925Z,101691.34
2023-03-04T21:24:25.986Z,101688.94
2023-03-04T21:26:58.060Z,101689.84
2023-03-04T21:29:29.283Z,101686.28
2023-03-04T21:32:13.067Z,101674.59
2023-03-04T21:34:52.111Z,101681.75
2023-03-04T21:37:22.244Z,101682.78
2023-03-04T21:39:51.785Z,101669.81
2023-03-04T21:42:23.986Z,101675.00
2023-03-04T21:44:53.490Z,101673.22
2023-03-04T21:47:23.144Z,101670.84
2023-03-04T21:49:53.014Z,101676.94
2023-03-04T21:52:23.993Z,101668.59
2023-03-04T21:54:53.413Z,101676.69
2023-03-04T21:57:26.525Z,101671.88
2023-03-04T21:59:55.890Z,101670.28
2023-03-04T22:02:26.810Z,101670.75
2023-03-04T22:04:56.486Z,101663.56
2023-03-04T22:07:25.899Z,101668.00
2023-03-04T22:09:56.902Z,101667.59
2023-03-04T22:12:29.140Z,101667.91
2023-03-04T22:14:58.791Z,101670.75
2023-03-04T22:17:31.039Z,101665.53
2023-03-04T22:20:02.477Z,101654.03
2023-03-04T22:22:32.034Z,101649.22
2023-03-04T22:25:02.201Z,101647.28
2023-03-04T22:27:34.220Z,101637.25
2023-03-04T22:30:03.967Z,101640.25
2023-03-04T22:32:33.607Z,101622.94
2023-03-04T22:35:02.980Z,101621.66
2023-03-04T22:37:32.400Z,101607.47
2023-03-04T22:40:02.175Z,101601.53
2023-03-04T22:42:34.130Z,101592.19
2023-03-04T22:45:03.638Z,101588.50
2023-03-04T22:47:33.043Z,101579.09
2023-03-04T22:50:02.504Z,101569.03
2023-03-04T22:52:31.993Z,101553.19
2023-03-04T22:55:01.441Z,101557.75
2023-03-04T22:57:30.878Z,101552.38
2023-03-04T23:00:03.161Z,101549.19
2023-03-04T23:02:32.603Z,101543.75
2023-03-04T23:05:02.450Z,101537.22
2023-03-04T23:07:31.844Z,101546.94
2023-03-04T23:10:01.266Z,101539.72
2023-03-04T23:12:30.667Z,101534.41
2023-03-04T23:15:03.523Z,101526.97
2023-03-04T23:17:32.927Z,101514.91
2023-03-04T23:20:02.542Z,101501.00
2023-03-04T23:22:31.937Z,101507.81
2023-03-04T23:25:01.489Z,101498.84
2023-03-04T23:27:31.200Z,101495.75
2023-03-04T23:30:03.473Z,101500.59
2023-03-04T23:32:33.066Z,101502.53
2023-03-04T23:35:02.737Z,101490.16
2023-03-04T23:37:32.124Z,101495.44
2023-03-04T23:40:01.522Z,101486.91
2023-03-04T23:42:30.969Z,101476.44
2023-03-04T23:45:03.215Z,101466.28
2023-03-04T23:47:32.631Z,101477.38
2023-03-04T23:50:03.908Z,101477.13
2023-03-04T23:52:33.382Z,101474.59
2023-03-04T23:55:02.813Z,101476.22
2023-03-04T23:57:32.272Z,101472.03
